Terminal Aerodrome Forecast
Issued by NWS Sioux Falls, SD

Home | Current Version | Previous Version | Graphics & Text | Print | Product List | Glossary On
Versions: 1 2 3 4 5 6 7 8 9 10 11 12 13
437
FTUS43 KFSD 181126
TAFHON
TAF
KHON 181126Z 1812/1912 17007KT P6SM SCT250 WS020/32030KT
     FM181500 33011KT P6SM SCT250
     FM181700 33013G22KT P6SM FEW250
     FM190000 29005KT P6SM SKC
     FM190800 17005KT P6SM FEW250=

USA.gov is the U.S. government's official web portal to all federal, state and local government web resources and services.